createdAt,value
2022-08-18T00:00:01.703Z,45.2
2022-08-18T00:05:02.216Z,45.1
2022-08-18T00:10:01.784Z,45.3
2022-08-18T00:15:01.784Z,44.3
2022-08-18T00:20:02.021Z,44.2
2022-08-18T00:25:01.858Z,45.0
2022-08-18T00:30:01.816Z,45.5
2022-08-18T00:35:06.870Z,45.9
2022-08-18T00:45:01.920Z,45.2
2022-08-18T00:50:02.750Z,44.2
2022-08-18T00:55:02.209Z,43.6
2022-08-18T01:00:01.738Z,43.4
2022-08-18T01:05:02.188Z,43.7
2022-08-18T01:10:01.665Z,44.7
2022-08-18T01:15:01.732Z,46.8
2022-08-18T01:20:01.687Z,47.8
2022-08-18T01:25:01.880Z,47.1
2022-08-18T01:30:01.956Z,47.0
2022-08-18T01:35:02.183Z,46.6
2022-08-18T01:45:02.462Z,46.6
2022-08-18T01:50:01.758Z,48.2
2022-08-18T01:55:01.844Z,49.5
2022-08-18T02:00:01.944Z,51.7
2022-08-18T02:05:01.657Z,52.9
2022-08-18T02:10:02.600Z,52.2
2022-08-18T02:15:01.699Z,51.2
2022-08-18T02:20:02.114Z,50.2
2022-08-18T02:25:01.720Z,48.8
2022-08-18T02:30:01.902Z,47.5
2022-08-18T02:35:01.770Z,47.7
2022-08-18T02:40:01.768Z,47.8
2022-08-18T02:45:01.657Z,47.6
2022-08-18T02:50:01.948Z,46.6
2022-08-18T02:55:01.630Z,45.7
2022-08-18T03:00:01.580Z,44.3
2022-08-18T03:05:01.938Z,43.6
2022-08-18T03:20:02.869Z,42.8
2022-08-18T03:35:01.592Z,43.8
2022-08-18T03:40:01.783Z,43.7
2022-08-18T03:55:03.127Z,44.8
2022-08-18T04:00:02.478Z,44.8
2022-08-18T04:05:05.557Z,44.8
2022-08-18T04:10:01.510Z,45.6
2022-08-18T04:25:01.910Z,45.4
2022-08-18T04:35:03.343Z,45.2
2022-08-18T04:40:01.680Z,50.7
2022-08-18T04:50:02.491Z,50.6
2022-08-18T04:55:02.078Z,50.8
2022-08-18T05:00:01.555Z,51.4
2022-08-18T05:05:01.712Z,45.8
2022-08-18T05:20:02.272Z,45.6
2022-08-18T05:25:01.600Z,45.4
2022-08-18T05:35:01.589Z,45.8
2022-08-18T05:40:01.729Z,46.7
2022-08-18T05:50:01.463Z,47.4
2022-08-18T05:55:01.525Z,47.9
2022-08-18T06:05:01.600Z,47.6
2022-08-18T06:10:02.414Z,47.2
2022-08-18T06:15:06.720Z,47.0
2022-08-18T06:35:01.628Z,49.8
2022-08-18T06:40:01.435Z,49.1
2022-08-18T06:45:01.621Z,48.7
2022-08-18T06:50:01.255Z,48.4
2022-08-18T07:20:02.279Z,49.4
2022-08-18T07:25:05.788Z,49.0
2022-08-18T07:30:01.968Z,48.6
2022-08-18T07:40:02.256Z,48.3
2022-08-18T07:55:01.979Z,49.0
2022-08-18T08:00:01.946Z,48.8
2022-08-18T08:05:02.046Z,53.0
2022-08-18T08:25:01.511Z,49.8
2022-08-18T08:30:01.576Z,49.4
2022-08-18T08:35:07.054Z,49.8
2022-08-18T08:45:01.611Z,49.4
2022-08-18T09:00:01.479Z,49.6
2022-08-18T09:10:01.462Z,49.8
2022-08-18T09:25:01.164Z,48.0
2022-08-18T09:30:02.527Z,48.5
2022-08-18T09:35:01.093Z,48.4
2022-08-18T09:40:13.295Z,48.3
2022-08-18T09:50:02.142Z,48.5
2022-08-18T10:20:02.661Z,51.5
2022-08-18T10:45:01.119Z,54.0
2022-08-18T10:50:01.311Z,51.5
2022-08-18T10:55:01.166Z,52.4
2022-08-18T11:00:01.166Z,51.7
2022-08-18T11:05:01.897Z,51.6
2022-08-18T11:20:01.600Z,51.9
2022-08-18T11:25:03.527Z,52.4
2022-08-18T11:30:01.111Z,53.1
2022-08-18T11:35:01.309Z,53.4
2022-08-18T11:40:01.510Z,52.2
2022-08-18T11:45:01.239Z,52.5
2022-08-18T11:50:09.669Z,53.7
2022-08-18T11:55:01.134Z,55.2
2022-08-18T12:00:01.587Z,56.1
2022-08-18T12:25:01.216Z,56.6
2022-08-18T12:30:01.140Z,59.3
2022-08-18T12:35:08.185Z,56.2
2022-08-18T12:40:01.223Z,53.7
2022-08-18T12:45:01.662Z,54.8
2022-08-18T12:50:01.513Z,55.0
2022-08-18T12:55:03.328Z,54.7
2022-08-18T13:00:04.309Z,56.2
2022-08-18T13:05:01.778Z,57.9
2022-08-18T13:10:01.205Z,56.9
2022-08-18T13:15:01.409Z,57.0
2022-08-18T13:20:01.304Z,57.6
2022-08-18T13:25:01.663Z,58.6
2022-08-18T13:30:02.406Z,58.3
2022-08-18T13:35:02.997Z,58.0
2022-08-18T13:40:04.277Z,57.7
2022-08-18T13:50:04.777Z,53.4
2022-08-18T14:00:01.030Z,53.3
2022-08-18T14:05:01.086Z,52.2
2022-08-18T14:10:05.268Z,51.5
2022-08-18T14:15:06.069Z,51.0
2022-08-18T14:20:02.197Z,50.6
2022-08-18T14:25:01.197Z,50.6
2022-08-18T14:30:01.312Z,50.6
2022-08-18T14:40:12.635Z,50.6
2022-08-18T14:50:00.968Z,51.4
2022-08-18T14:55:01.263Z,51.7
2022-08-18T15:00:01.425Z,51.9
2022-08-18T15:05:01.404Z,51.9
2022-08-18T15:15:02.587Z,50.6
2022-08-18T15:20:01.995Z,50.3
2022-08-18T15:25:01.153Z,50.5
2022-08-18T15:35:12.011Z,50.9
2022-08-18T15:40:03.068Z,50.8
2022-08-18T15:45:13.736Z,50.8
2022-08-18T15:50:21.755Z,50.4
2022-08-18T15:55:02.743Z,50.2
2022-08-18T16:00:01.036Z,49.7
2022-08-18T16:05:10.532Z,50.5
2022-08-18T16:10:02.219Z,50.6
2022-08-18T16:15:01.277Z,50.4
2022-08-18T16:25:01.311Z,50.7
2022-08-18T16:30:01.036Z,50.2
2022-08-18T16:35:01.162Z,49.8
2022-08-18T16:40:01.315Z,49.8
2022-08-18T16:45:01.105Z,49.6
2022-08-18T16:50:01.042Z,49.5
2022-08-18T16:55:01.166Z,49.4
2022-08-18T17:00:01.235Z,49.8
2022-08-18T17:05:01.407Z,49.8
2022-08-18T17:10:01.004Z,49.7
2022-08-18T17:25:01.318Z,49.6
2022-08-18T17:30:00.990Z,50.0
2022-08-18T17:35:01.157Z,50.5
2022-08-18T17:40:01.098Z,50.8
2022-08-18T17:55:01.890Z,51.0
2022-08-18T18:00:01.700Z,51.5
2022-08-18T18:05:01.738Z,51.3
2022-08-18T18:10:01.678Z,51.0
2022-08-18T18:15:01.803Z,50.7
2022-08-18T18:25:01.832Z,50.0
2022-08-18T18:30:01.669Z,49.8
2022-08-18T18:35:01.736Z,49.6
2022-08-18T18:55:01.518Z,49.6
2022-08-18T19:00:01.405Z,50.9
2022-08-18T19:05:01.461Z,50.4
2022-08-18T19:35:12.565Z,48.7
2022-08-18T19:45:17.454Z,48.8
2022-08-18T20:05:01.382Z,49.0
2022-08-18T20:25:01.761Z,52.2
2022-08-18T20:45:01.050Z,49.2
2022-08-18T20:50:00.977Z,49.6
2022-08-18T21:05:01.444Z,48.0
2022-08-18T21:10:13.421Z,48.5
2022-08-18T21:15:01.352Z,48.5
2022-08-18T21:20:01.282Z,48.7
2022-08-18T21:30:01.320Z,48.6
2022-08-18T21:35:01.352Z,48.3
2022-08-18T21:55:01.206Z,47.8
2022-08-18T22:00:00.758Z,47.8
2022-08-18T22:15:01.526Z,48.0
2022-08-18T22:20:01.133Z,47.7
2022-08-18T22:35:01.583Z,47.8
2022-08-18T22:40:01.668Z,47.4
2022-08-18T22:45:05.426Z,47.3
2022-08-18T22:50:01.938Z,47.3
2022-08-18T22:55:07.205Z,47.0
2022-08-18T23:00:01.475Z,46.2
2022-08-18T23:05:01.701Z,45.6
2022-08-18T23:10:01.562Z,45.3
2022-08-18T23:15:01.549Z,44.2
2022-08-18T23:20:01.539Z,43.7
2022-08-18T23:25:09.468Z,43.7
2022-08-18T23:30:01.651Z,43.8
2022-08-18T23:35:01.647Z,43.7
2022-08-18T23:40:01.746Z,43.9
2022-08-18T23:45:01.751Z,44.4
2022-08-18T23:50:01.873Z,44.8
2022-08-18T23:55:01.674Z,45.1
